Palmer, Tennessee
Current Conditions -  °F | °C
As of 7:55 PM on Sunday 21 Dec 2014 (Local Time) from KRNC Reporting Station
Overcast Overcast  
Wind Chill: 46°   Ceiling: 3800
Heat Index: 46°   Visibility: 10mi
Dew Point: 41°   Wind: 0mph
Humidity: 81%   Direction: NA
Pressure: 30.08"   Gusts: NA
Location:  35.35°N, 85.57°W
Report Text: KRNC 220155Z AUTO 00000KT 10SM SCT027 OVC038 08/05 A3008 RMK
Loading
Personal Weather Stations






























Interactive Weather Map New forecast layout! Learn more

10-Day Weather Forecast

Advertisements
Track Severe Weather on mobile